Terminal Aerodrome Forecast
Issued by NWS

Home | Current Version | Previous Version | Text Only | Print | Product List | Glossary On
Versions: 1 2 3 4 5 6 7 8 9 10 11 12 13 14 15 16 17 18 19 20 21 22 23 24 25 26
493
FTUS45 KBOI 261208 AAA
TAFMYL
TAF AMD
KMYL 261208Z 2612/2712 00000KT P6SM SKC
     FM262000 26007KT P6SM SCT090
     FM270600 36003KT P6SM SKC=

USA.gov is the U.S. government's official web portal to all federal, state and local government web resources and services.